Time;durP1;ratioP1;P1;durP2;ratioP2;P2;SDS_P1;SDS_P2;PMS_P1;PMS_P2;Temp;Humidity;BMP_temperature;BMP_pressure;BME280_temperature;BME280_humidity;BME280_pressure;Samples;Min_cycle;Max_cycle;Signal;HPM_P1;HPM_P2
2022/01/11 00:01:55;;;;;;;;;;;20.00;34.90;;;;;;5096245;28;20380;-56
2022/01/11 00:04:28;;;;;;;;;;;20.00;34.90;;;;;;5096286;28;19935;-55
2022/01/11 00:06:53;;;;;;;;;;;20.00;34.80;;;;;;5096234;28;19915;-52
2022/01/11 00:09:40;;;;;;;;;;;20.00;34.90;;;;;;5096054;28;19908;-55
2022/01/11 00:12:08;;;;;;;;;;;20.00;34.80;;;;;;5096209;28;20447;-56
2022/01/11 00:14:34;;;;;;;;;;;20.00;34.90;;;;;;5096111;28;19953;-56
2022/01/11 00:16:59;;;;;;;;;;;20.00;34.90;;;;;;5095969;28;20420;-55
2022/01/11 00:19:25;;;;;;;;;;;20.00;34.80;;;;;;5095971;28;19908;-56
2022/01/11 00:21:51;;;;;;;;;;;19.90;34.80;;;;;;5096093;28;19935;-56
2022/01/11 00:24:30;;;;;;;;;;;20.00;34.80;;;;;;5096032;28;19908;-55
2022/01/11 00:27:07;;;;;;;;;;;20.00;34.80;;;;;;5095995;28;19915;-55
2022/01/11 00:29:34;;;;;;;;;;;19.90;34.70;;;;;;5095900;28;19951;-55
2022/01/11 00:32:05;;;;;;;;;;;19.90;34.80;;;;;;5094898;28;19908;-57
2022/01/11 00:34:40;;;;;;;;;;;19.90;34.80;;;;;;5095568;28;19912;-56
2022/01/11 00:37:06;;;;;;;;;;;19.90;34.70;;;;;;5079046;28;19916;-55
2022/01/11 00:39:32;;;;;;;;;;;19.80;34.70;;;;;;5095471;28;20257;-56
2022/01/11 00:41:58;;;;;;;;;;;19.80;34.70;;;;;;5095613;28;19953;-55
2022/01/11 00:44:23;;;;;;;;;;;19.80;34.80;;;;;;5095462;28;19995;-56
2022/01/11 00:46:49;;;;;;;;;;;19.80;34.70;;;;;;5095312;28;19908;-57
2022/01/11 00:49:14;;;;;;;;;;;19.80;34.70;;;;;;5095663;28;19908;-55
2022/01/11 00:51:40;;;;;;;;;;;19.80;34.70;;;;;;5095406;28;19965;-56
2022/01/11 00:54:05;;;;;;;;;;;19.80;34.80;;;;;;5095237;28;20382;-55
2022/01/11 00:56:31;;;;;;;;;;;19.70;34.70;;;;;;5095183;28;19923;-56
2022/01/11 00:58:56;;;;;;;;;;;19.70;34.70;;;;;;5094930;28;20428;-55
2022/01/11 01:01:22;;;;;;;;;;;19.70;34.70;;;;;;5095047;28;19933;-52
2022/01/11 01:03:48;;;;;;;;;;;19.70;34.70;;;;;;5094963;28;19912;-54
2022/01/11 01:06:13;;;;;;;;;;;19.70;34.70;;;;;;5095136;28;19908;-52
2022/01/11 01:08:38;;;;;;;;;;;19.70;34.70;;;;;;5094965;28;19908;-53
2022/01/11 01:11:04;;;;;;;;;;;19.70;34.60;;;;;;5094845;28;19908;-56
2022/01/11 01:13:30;;;;;;;;;;;19.70;34.70;;;;;;5094796;28;19908;-57
2022/01/11 01:15:55;;;;;;;;;;;19.70;34.70;;;;;;5094693;28;19912;-56
2022/01/11 01:18:23;;;;;;;;;;;19.60;34.60;;;;;;5094956;28;19913;-56
2022/01/11 01:20:49;;;;;;;;;;;19.60;34.60;;;;;;5095044;28;20252;-57
2022/01/11 01:23:14;;;;;;;;;;;19.60;34.60;;;;;;5094756;28;19911;-55
2022/01/11 01:25:41;;;;;;;;;;;19.60;34.60;;;;;;5094593;28;19912;-52
2022/01/11 01:28:06;;;;;;;;;;;19.60;34.50;;;;;;5094628;28;19908;-55
2022/01/11 01:30:32;;;;;;;;;;;19.60;34.60;;;;;;5094700;28;19916;-53
2022/01/11 01:32:57;;;;;;;;;;;19.60;34.50;;;;;;5094766;28;19908;-55
2022/01/11 01:35:27;;;;;;;;;;;19.60;34.50;;;;;;5094495;28;19948;-55
2022/01/11 01:37:52;;;;;;;;;;;19.60;34.60;;;;;;5094282;28;20454;-54
2022/01/11 01:40:18;;;;;;;;;;;19.50;34.50;;;;;;5094379;28;19909;-55
2022/01/11 01:42:44;;;;;;;;;;;19.50;34.60;;;;;;5094302;28;20371;-56
2022/01/11 01:45:10;;;;;;;;;;;19.50;34.60;;;;;;5094226;28;19908;-56
2022/01/11 01:47:36;;;;;;;;;;;19.50;34.50;;;;;;5094724;28;20318;-55
2022/01/11 01:50:02;;;;;;;;;;;19.50;34.50;;;;;;5094408;28;19908;-56
2022/01/11 01:52:28;;;;;;;;;;;19.50;34.50;;;;;;5094245;28;19954;-54
2022/01/11 01:54:55;;;;;;;;;;;19.50;34.50;;;;;;5094147;28;19908;-55
2022/01/11 01:57:20;;;;;;;;;;;19.50;34.50;;;;;;5093949;28;19916;-56
2022/01/11 01:59:46;;;;;;;;;;;19.50;34.50;;;;;;5093779;28;19920;-55
2022/01/11 02:02:13;;;;;;;;;;;19.50;34.50;;;;;;5094206;28;19913;-54
2022/01/11 02:04:39;;;;;;;;;;;19.50;34.50;;;;;;5094142;28;20268;-56
2022/01/11 02:07:04;;;;;;;;;;;19.50;34.50;;;;;;5093850;28;19915;-55
2022/01/11 02:09:30;;;;;;;;;;;19.50;34.50;;;;;;5094165;28;19908;-56
2022/01/11 02:11:55;;;;;;;;;;;19.50;34.40;;;;;;5093818;28;20264;-55
2022/01/11 02:14:21;;;;;;;;;;;19.50;34.50;;;;;;5093972;28;19995;-53
2022/01/11 02:16:46;;;;;;;;;;;19.50;34.50;;;;;;5093898;28;20252;-54
2022/01/11 02:19:12;;;;;;;;;;;19.50;34.40;;;;;;5093836;28;19915;-52
2022/01/11 02:21:38;;;;;;;;;;;19.50;34.40;;;;;;5093924;28;19908;-55
2022/01/11 02:24:04;;;;;;;;;;;19.50;34.40;;;;;;5093584;28;19908;-55
2022/01/11 02:26:29;;;;;;;;;;;19.40;34.50;;;;;;5093640;28;20015;-54
2022/01/11 02:28:54;;;;;;;;;;;19.40;34.40;;;;;;5093798;28;19909;-54
2022/01/11 02:31:20;;;;;;;;;;;19.40;34.40;;;;;;5093580;28;19951;-54
2022/01/11 02:33:47;;;;;;;;;;;19.40;34.40;;;;;;5093500;28;19908;-54
2022/01/11 02:36:24;;;;;;;;;;;19.40;34.40;;;;;;5093468;28;20363;-55
2022/01/11 02:38:51;;;;;;;;;;;19.30;34.40;;;;;;5093599;28;20355;-54
2022/01/11 02:41:16;;;;;;;;;;;19.30;34.30;;;;;;5093482;28;19946;-55
2022/01/11 02:43:43;;;;;;;;;;;19.30;34.40;;;;;;5093494;28;19912;-56
2022/01/11 02:46:09;;;;;;;;;;;19.30;34.30;;;;;;5093718;28;19912;-56
2022/01/11 02:48:34;;;;;;;;;;;19.40;34.40;;;;;;5093420;28;19915;-56
2022/01/11 02:51:00;;;;;;;;;;;19.30;34.40;;;;;;5093488;28;20399;-55
2022/01/11 02:53:25;;;;;;;;;;;19.30;34.30;;;;;;5093653;28;19915;-56
2022/01/11 02:55:51;;;;;;;;;;;19.30;34.30;;;;;;5095689;28;20390;-56
2022/01/11 02:58:16;;;;;;;;;;;19.30;34.30;;;;;;5097274;28;19912;-56
2022/01/11 03:00:42;;;;;;;;;;;19.30;34.30;;;;;;5097600;28;19912;-57
2022/01/11 03:03:08;;;;;;;;;;;19.30;34.30;;;;;;5079157;28;19908;-54
2022/01/11 03:05:34;;;;;;;;;;;19.30;34.30;;;;;;5097418;28;20046;-54
2022/01/11 03:07:59;;;;;;;;;;;19.20;34.30;;;;;;5097342;28;19947;-55
2022/01/11 03:10:34;;;;;;;;;;;19.30;34.20;;;;;;5097172;28;19908;-54
2022/01/11 03:13:00;;;;;;;;;;;19.20;34.40;;;;;;5097207;28;19922;-57
2022/01/11 03:15:26;;;;;;;;;;;19.20;34.20;;;;;;5097408;28;19908;-56
2022/01/11 03:17:51;;;;;;;;;;;19.20;34.30;;;;;;5097328;28;19916;-54
2022/01/11 03:20:17;;;;;;;;;;;19.20;34.30;;;;;;5097038;28;19907;-56
2022/01/11 03:22:42;;;;;;;;;;;19.20;34.20;;;;;;5078795;28;19908;-55
2022/01/11 03:25:08;;;;;;;;;;;19.20;34.10;;;;;;5096909;28;19999;-57
2022/01/11 03:27:33;;;;;;;;;;;19.20;34.20;;;;;;5096859;28;19908;-56
2022/01/11 03:29:59;;;;;;;;;;;19.20;34.20;;;;;;5096860;28;20025;-54
2022/01/11 03:32:24;;;;;;;;;;;19.20;34.20;;;;;;5096858;28;19915;-56
2022/01/11 03:34:50;;;;;;;;;;;19.20;34.20;;;;;;5097057;28;19908;-56
2022/01/11 03:37:17;;;;;;;;;;;19.20;34.20;;;;;;5096586;28;19959;-57
2022/01/11 03:39:45;;;;;;;;;;;19.10;34.20;;;;;;5096622;28;20367;-54
2022/01/11 03:42:11;;;;;;;;;;;19.10;34.20;;;;;;5096951;28;19912;-56
2022/01/11 03:44:36;;;;;;;;;;;19.10;34.20;;;;;;5096751;28;19931;-56
2022/01/11 03:47:02;;;;;;;;;;;19.10;34.20;;;;;;5096900;28;19955;-52
2022/01/11 03:49:28;;;;;;;;;;;19.10;34.10;;;;;;5096429;28;20352;-56
2022/01/11 03:51:54;;;;;;;;;;;19.10;34.20;;;;;;5096531;28;20476;-56
2022/01/11 03:54:28;;;;;;;;;;;19.10;34.20;;;;;;5096429;28;19931;-56
2022/01/11 03:56:54;;;;;;;;;;;19.10;34.10;;;;;;5096589;28;19920;-56
2022/01/11 03:59:20;;;;;;;;;;;19.10;34.10;;;;;;5096141;28;19966;-54
2022/01/11 04:01:46;;;;;;;;;;;19.10;34.00;;;;;;5096351;28;20324;-54
2022/01/11 04:04:12;;;;;;;;;;;19.10;34.10;;;;;;5078072;28;19987;-56
2022/01/11 04:06:38;;;;;;;;;;;19.10;34.10;;;;;;5096372;28;19915;-55
2022/01/11 04:09:04;;;;;;;;;;;19.10;34.10;;;;;;5096302;28;19908;-57
2022/01/11 04:11:29;;;;;;;;;;;19.10;34.10;;;;;;5096333;28;19916;-56
2022/01/11 04:13:55;;;;;;;;;;;19.00;34.10;;;;;;5096222;28;20280;-55
2022/01/11 04:16:20;;;;;;;;;;;19.10;34.00;;;;;;5095963;28;19927;-55
2022/01/11 04:18:46;;;;;;;;;;;19.00;34.10;;;;;;5096050;28;19974;-54
2022/01/11 04:21:12;;;;;;;;;;;19.00;34.00;;;;;;5095976;28;19915;-55
2022/01/11 04:23:38;;;;;;;;;;;19.00;33.90;;;;;;5096549;28;19916;-52
2022/01/11 04:26:04;;;;;;;;;;;19.00;34.00;;;;;;5077725;28;20364;-55
2022/01/11 04:28:29;;;;;;;;;;;19.00;34.00;;;;;;5095930;28;19915;-55
2022/01/11 04:30:58;;;;;;;;;;;19.00;34.00;;;;;;5095770;28;19912;-56
2022/01/11 04:33:24;;;;;;;;;;;19.00;34.00;;;;;;5095704;28;19909;-56
2022/01/11 04:35:50;;;;;;;;;;;19.00;34.00;;;;;;5095534;28;19908;-56
2022/01/11 04:38:17;;;;;;;;;;;19.00;34.00;;;;;;5095603;28;20396;-55
2022/01/11 04:40:42;;;;;;;;;;;19.00;34.00;;;;;;5095728;28;20018;-51
2022/01/11 04:43:08;;;;;;;;;;;19.00;34.00;;;;;;5095815;28;19951;-52
2022/01/11 04:45:33;;;;;;;;;;;19.00;34.00;;;;;;5095421;28;19915;-55
2022/01/11 04:47:59;;;;;;;;;;;19.00;34.00;;;;;;5095650;28;19995;-54
2022/01/11 04:50:25;;;;;;;;;;;18.90;34.00;;;;;;5095352;28;19969;-54
2022/01/11 04:52:51;;;;;;;;;;;18.90;34.00;;;;;;5095261;28;19908;-53
2022/01/11 04:55:16;;;;;;;;;;;18.90;34.00;;;;;;5095544;28;19950;-56
2022/01/11 04:57:42;;;;;;;;;;;18.90;34.10;;;;;;5076984;28;19986;-54
2022/01/11 05:00:08;;;;;;;;;;;18.90;34.00;;;;;;5094821;28;20011;-54
2022/01/11 05:02:33;;;;;;;;;;;18.90;34.00;;;;;;5095063;28;19912;-53
2022/01/11 05:04:59;;;;;;;;;;;18.90;34.00;;;;;;5095268;28;19960;-56
2022/01/11 05:07:24;;;;;;;;;;;18.90;34.00;;;;;;5094953;28;20061;-55
2022/01/11 05:09:51;;;;;;;;;;;18.90;34.00;;;;;;5095110;28;19908;-56
2022/01/11 05:12:16;;;;;;;;;;;18.90;34.00;;;;;;5094903;28;19909;-56
2022/01/11 05:14:42;;;;;;;;;;;18.90;33.90;;;;;;5095130;28;19908;-56
2022/01/11 05:17:07;;;;;;;;;;;18.90;33.90;;;;;;5094570;28;20001;-54
2022/01/11 05:19:33;;;;;;;;;;;18.90;33.90;;;;;;5094743;28;19961;-54
2022/01/11 05:21:58;;;;;;;;;;;18.90;33.90;;;;;;5094601;28;19919;-55
2022/01/11 05:24:23;;;;;;;;;;;18.90;33.80;;;;;;5094902;28;19908;-56
2022/01/11 05:26:49;;;;;;;;;;;19.00;33.90;;;;;;5094969;28;19915;-56
2022/01/11 05:29:14;;;;;;;;;;;18.90;33.80;;;;;;5094614;28;19908;-55
2022/01/11 05:31:40;;;;;;;;;;;19.00;33.90;;;;;;5094466;28;19915;-56
2022/01/11 05:34:05;;;;;;;;;;;19.00;33.80;;;;;;5094442;28;19908;-55
2022/01/11 05:36:31;;;;;;;;;;;19.00;33.80;;;;;;5094253;28;19916;-54
2022/01/11 05:38:56;;;;;;;;;;;19.00;33.80;;;;;;5094328;28;19908;-55
2022/01/11 05:41:22;;;;;;;;;;;19.10;33.80;;;;;;5094544;28;20324;-51
2022/01/11 05:43:47;;;;;;;;;;;19.10;33.80;;;;;;5094347;28;19916;-54
2022/01/11 05:46:12;;;;;;;;;;;19.10;33.70;;;;;;5094521;28;19908;-52
2022/01/11 05:48:38;;;;;;;;;;;19.10;33.70;;;;;;5094182;28;19999;-51
2022/01/11 05:51:03;;;;;;;;;;;19.10;33.70;;;;;;5094105;28;19908;-51
2022/01/11 05:53:29;;;;;;;;;;;19.20;33.70;;;;;;5094103;28;19908;-54
2022/01/11 05:55:54;;;;;;;;;;;19.20;33.60;;;;;;5094014;28;19916;-51
2022/01/11 05:58:20;;;;;;;;;;;19.20;33.60;;;;;;5075770;28;20264;-50
2022/01/11 06:00:45;;;;;;;;;;;19.20;33.60;;;;;;5093825;28;20006;-52
2022/01/11 06:03:11;;;;;;;;;;;19.20;33.50;;;;;;5093930;28;19947;-53
2022/01/11 06:05:39;;;;;;;;;;;19.20;33.50;;;;;;5093874;28;19961;-52
2022/01/11 06:08:05;;;;;;;;;;;19.20;33.50;;;;;;5093852;28;19908;-53
2022/01/11 06:10:30;;;;;;;;;;;19.30;33.60;;;;;;5094090;28;19978;-50
2022/01/11 06:12:56;;;;;;;;;;;19.30;33.50;;;;;;5093729;28;19908;-52
2022/01/11 06:15:21;;;;;;;;;;;19.30;33.50;;;;;;5093821;28;19938;-52
2022/01/11 06:17:47;;;;;;;;;;;19.30;33.50;;;;;;5093608;28;19963;-52
2022/01/11 06:20:12;;;;;;;;;;;19.30;33.50;;;;;;5093373;28;20363;-55
2022/01/11 06:22:38;;;;;;;;;;;19.30;33.50;;;;;;5093715;28;19960;-53
2022/01/11 06:25:04;;;;;;;;;;;19.30;33.50;;;;;;5093843;28;19933;-51
2022/01/11 06:27:30;;;;;;;;;;;19.30;33.50;;;;;;5093527;28;19912;-51
2022/01/11 06:29:56;;;;;;;;;;;19.30;33.40;;;;;;5092772;28;19916;-54
2022/01/11 06:32:21;;;;;;;;;;;19.40;33.50;;;;;;5093583;28;20375;-55
2022/01/11 06:34:47;;;;;;;;;;;19.30;33.40;;;;;;5093735;28;19995;-55
2022/01/11 06:37:12;;;;;;;;;;;19.40;33.40;;;;;;5093616;28;19920;-53
2022/01/11 06:39:38;;;;;;;;;;;19.40;33.40;;;;;;5093683;28;19954;-52
2022/01/11 06:42:04;;;;;;;;;;;19.40;33.40;;;;;;5093471;28;19908;-53
2022/01/11 06:44:29;;;;;;;;;;;19.40;33.40;;;;;;5093427;28;19915;-54
2022/01/11 06:46:55;;;;;;;;;;;19.50;33.40;;;;;;5093298;28;19908;-52
2022/01/11 06:49:20;;;;;;;;;;;19.40;33.30;;;;;;5093555;28;19974;-51
2022/01/11 06:51:46;;;;;;;;;;;19.40;33.30;;;;;;5093179;28;19909;-55
2022/01/11 06:54:11;;;;;;;;;;;19.50;33.40;;;;;;5093309;28;20053;-54
2022/01/11 06:56:37;;;;;;;;;;;19.50;33.30;;;;;;5093263;28;19948;-56
2022/01/11 06:59:02;;;;;;;;;;;19.50;33.30;;;;;;5093214;28;20414;-55
2022/01/11 07:01:29;;;;;;;;;;;19.50;33.30;;;;;;5075409;28;20011;-50
2022/01/11 07:03:54;;;;;;;;;;;19.50;33.30;;;;;;5093169;28;19915;-55
2022/01/11 07:06:20;;;;;;;;;;;19.50;33.30;;;;;;5093483;28;19908;-51
2022/01/11 07:08:45;;;;;;;;;;;19.50;33.30;;;;;;5093096;28;19908;-54
2022/01/11 07:11:11;;;;;;;;;;;19.50;33.30;;;;;;5075080;28;19958;-54
2022/01/11 07:13:37;;;;;;;;;;;19.50;33.40;;;;;;5093330;28;19912;-51
2022/01/11 07:16:02;;;;;;;;;;;19.50;33.30;;;;;;5093287;28;19919;-53
2022/01/11 07:18:28;;;;;;;;;;;19.50;33.30;;;;;;5093002;28;19961;-51
2022/01/11 07:20:53;;;;;;;;;;;19.50;33.30;;;;;;5058301;28;19912;-54
2022/01/11 07:23:19;;;;;;;;;;;19.50;33.30;;;;;;5093326;28;19951;-51
2022/01/11 07:25:44;;;;;;;;;;;19.50;33.30;;;;;;5093365;28;19908;-51
2022/01/11 07:28:12;;;;;;;;;;;19.50;33.30;;;;;;5093053;28;20325;-50
2022/01/11 07:30:37;;;;;;;;;;;19.50;33.50;;;;;;5087933;28;19955;-56
2022/01/11 07:33:03;;;;;;;;;;;19.60;33.40;;;;;;5083014;28;19948;-53
2022/01/11 07:35:28;;;;;;;;;;;19.60;33.30;;;;;;5071522;28;20383;-53
2022/01/11 07:37:53;;;;;;;;;;;19.60;33.20;;;;;;5082103;28;19924;-52
2022/01/11 07:40:19;;;;;;;;;;;19.70;33.60;;;;;;5081146;28;19912;-57
2022/01/11 07:42:45;;;;;;;;;;;19.60;33.30;;;;;;5093651;28;19920;-52
2022/01/11 07:45:10;;;;;;;;;;;19.60;33.40;;;;;;5084344;28;19912;-52
2022/01/11 07:47:36;;;;;;;;;;;19.60;33.30;;;;;;5094594;28;19909;-56
2022/01/11 07:50:02;;;;;;;;;;;19.70;33.30;;;;;;5095453;28;19916;-55
2022/01/11 07:52:28;;;;;;;;;;;19.70;33.40;;;;;;5096377;28;19966;-54
2022/01/11 07:54:53;;;;;;;;;;;19.70;33.40;;;;;;5096869;28;20000;-52
2022/01/11 07:57:19;;;;;;;;;;;19.70;33.40;;;;;;5083349;28;19923;-52
2022/01/11 07:59:45;;;;;;;;;;;19.70;33.50;;;;;;5090006;28;19929;-56
2022/01/11 08:02:10;;;;;;;;;;;19.70;33.50;;;;;;5107778;28;20019;-56
2022/01/11 08:04:36;;;;;;;;;;;19.70;33.50;;;;;;5095184;28;19919;-56
2022/01/11 08:07:02;;;;;;;;;;;19.70;33.40;;;;;;5095106;28;19930;-56
2022/01/11 08:09:28;;;;;;;;;;;19.80;33.40;;;;;;5093985;28;19919;-56
2022/01/11 08:11:56;;;;;;;;;;;19.70;33.50;;;;;;5094714;28;19998;-55
2022/01/11 08:14:22;;;;;;;;;;;19.80;33.60;;;;;;5094629;28;19920;-51
2022/01/11 08:16:47;;;;;;;;;;;19.80;33.50;;;;;;5094889;28;20318;-54
2022/01/11 08:19:12;;;;;;;;;;;19.90;33.50;;;;;;5093906;28;19912;-51
2022/01/11 08:21:38;;;;;;;;;;;19.80;33.60;;;;;;5094732;28;19979;-53
2022/01/11 08:24:04;;;;;;;;;;;19.90;33.50;;;;;;5094587;28;19919;-54
2022/01/11 08:26:29;;;;;;;;;;;19.90;33.50;;;;;;5094672;28;20416;-55
2022/01/11 08:28:55;;;;;;;;;;;20.00;33.40;;;;;;5093937;28;20003;-51
2022/01/11 08:31:20;;;;;;;;;;;19.90;33.40;;;;;;5094744;28;19920;-54
2022/01/11 08:33:46;;;;;;;;;;;20.00;33.50;;;;;;5083166;28;20344;-54
2022/01/11 08:36:12;;;;;;;;;;;19.90;33.50;;;;;;5073798;28;20271;-53
2022/01/11 08:38:37;;;;;;;;;;;20.00;33.40;;;;;;5083979;28;19912;-52
2022/01/11 08:41:03;;;;;;;;;;;20.00;33.50;;;;;;5078602;28;19908;-55
2022/01/11 08:43:28;;;;;;;;;;;20.00;33.50;;;;;;5085486;28;19927;-53
2022/01/11 08:45:54;;;;;;;;;;;20.00;33.50;;;;;;5083772;28;20469;-54
2022/01/11 08:48:20;;;;;;;;;;;20.00;33.40;;;;;;5091328;28;20010;-51
2022/01/11 08:50:45;;;;;;;;;;;20.00;33.50;;;;;;5079026;28;20284;-54
2022/01/11 08:53:11;;;;;;;;;;;20.00;33.50;;;;;;5093534;28;19958;-51
2022/01/11 08:55:36;;;;;;;;;;;20.00;33.60;;;;;;5093545;28;20486;-56
2022/01/11 08:58:02;;;;;;;;;;;20.00;33.60;;;;;;5093553;28;20405;-54
2022/01/11 09:00:27;;;;;;;;;;;20.00;33.70;;;;;;5090828;28;20327;-55
2022/01/11 09:02:53;;;;;;;;;;;20.00;33.70;;;;;;5093496;28;19926;-54
2022/01/11 09:05:19;;;;;;;;;;;20.00;33.70;;;;;;5093466;28;19942;-56
2022/01/11 09:07:45;;;;;;;;;;;20.00;33.70;;;;;;5093799;28;19916;-57
2022/01/11 09:10:10;;;;;;;;;;;20.00;33.70;;;;;;5093155;28;19942;-53
2022/01/11 09:12:36;;;;;;;;;;;20.00;33.70;;;;;;5073171;28;19912;-54
2022/01/11 09:15:03;;;;;;;;;;;20.00;33.70;;;;;;5072102;28;19912;-55
2022/01/11 09:17:29;;;;;;;;;;;20.00;33.70;;;;;;5092386;28;19920;-54
2022/01/11 09:19:54;;;;;;;;;;;20.00;33.40;;;;;;5093184;28;19922;-55
2022/01/11 09:22:20;;;;;;;;;;;20.10;33.50;;;;;;5092962;28;19950;-53
2022/01/11 09:24:45;;;;;;;;;;;20.10;33.50;;;;;;5093337;28;19912;-54
2022/01/11 09:27:11;;;;;;;;;;;20.10;33.50;;;;;;5093018;28;20005;-51
2022/01/11 09:29:37;;;;;;;;;;;20.10;33.50;;;;;;5092982;28;20365;-48
2022/01/11 09:32:02;;;;;;;;;;;20.10;33.50;;;;;;5092558;28;19969;-52
2022/01/11 09:34:28;;;;;;;;;;;20.10;33.50;;;;;;5092808;28;19912;-50
2022/01/11 09:36:53;;;;;;;;;;;20.20;33.50;;;;;;5090889;28;19924;-54
2022/01/11 09:39:19;;;;;;;;;;;20.20;33.50;;;;;;5072110;28;20002;-55
2022/01/11 09:41:44;;;;;;;;;;;20.20;33.50;;;;;;5086200;28;19939;-54
2022/01/11 09:44:11;;;;;;;;;;;20.20;33.50;;;;;;5093002;28;19938;-52
2022/01/11 09:46:37;;;;;;;;;;;20.20;33.50;;;;;;5092905;28;19914;-52
2022/01/11 09:49:02;;;;;;;;;;;20.20;33.50;;;;;;5092105;28;19912;-53
2022/01/11 09:51:30;;;;;;;;;;;20.30;33.50;;;;;;5092487;28;19919;-52
2022/01/11 09:53:55;;;;;;;;;;;20.30;33.60;;;;;;5093213;28;19943;-54
2022/01/11 09:56:21;;;;;;;;;;;20.30;33.60;;;;;;5091320;28;19916;-52
2022/01/11 09:58:46;;;;;;;;;;;19.20;32.70;;;;;;5092271;28;19992;-54
2022/01/11 10:01:12;;;;;;;;;;;19.60;33.50;;;;;;5085459;28;19923;-58
2022/01/11 10:03:56;;;;;;;;;;;20.00;33.50;;;;;;5092886;28;19908;-51
2022/01/11 10:06:24;;;;;;;;;;;20.20;33.40;;;;;;5092703;28;19916;-53
2022/01/11 10:08:49;;;;;;;;;;;20.30;33.40;;;;;;5092229;28;19943;-53
2022/01/11 10:11:32;;;;;;;;;;;20.40;33.40;;;;;;5092316;28;19912;-51
2022/01/11 10:13:57;;;;;;;;;;;20.40;33.40;;;;;;5092274;28;19908;-56
2022/01/11 10:16:27;;;;;;;;;;;20.40;33.50;;;;;;5091623;28;19965;-54
2022/01/11 10:18:53;;;;;;;;;;;20.40;33.50;;;;;;5092180;28;20101;-50
2022/01/11 10:21:36;;;;;;;;;;;20.50;33.40;;;;;;5091865;28;19913;-51
2022/01/11 10:24:20;;;;;;;;;;;20.40;33.60;;;;;;5092225;28;19912;-50
2022/01/11 10:26:45;;;;;;;;;;;20.40;33.40;;;;;;5092319;28;19919;-51
2022/01/11 10:29:29;;;;;;;;;;;20.50;33.40;;;;;;5092406;28;19912;-52
2022/01/11 10:31:56;;;;;;;;;;;20.50;33.40;;;;;;5091850;28;20294;-52
2022/01/11 10:34:25;;;;;;;;;;;20.50;33.30;;;;;;5092522;28;19919;-50
2022/01/11 10:36:51;;;;;;;;;;;20.50;33.40;;;;;;5090769;28;19931;-50
2022/01/11 10:39:36;;;;;;;;;;;20.50;33.30;;;;;;5071669;28;20268;-54
2022/01/11 10:42:02;;;;;;;;;;;20.50;33.40;;;;;;5087809;28;19984;-52
2022/01/11 10:44:47;;;;;;;;;;;20.50;33.40;;;;;;5092327;28;19908;-55
2022/01/11 10:47:19;;;;;;;;;;;20.40;33.40;;;;;;5092217;28;19963;-51
2022/01/11 10:49:45;;;;;;;;;;;20.40;33.60;;;;;;5091641;28;19912;-53
2022/01/11 10:52:19;;;;;;;;;;;20.50;33.40;;;;;;5091914;28;20014;-52
2022/01/11 10:54:44;;;;;;;;;;;20.50;33.40;;;;;;5092147;28;20386;-54
2022/01/11 10:57:33;;;;;;;;;;;20.50;33.40;;;;;;5091257;28;19920;-52
2022/01/11 11:00:08;;;;;;;;;;;20.50;33.40;;;;;;5082920;28;19920;-51
2022/01/11 11:02:34;;;;;;;;;;;20.50;33.40;;;;;;5091639;28;19912;-49
2022/01/11 11:05:09;;;;;;;;;;;20.50;33.50;;;;;;5092082;28;20323;-55
2022/01/11 11:07:35;;;;;;;;;;;20.50;33.50;;;;;;5073614;28;20010;-51
2022/01/11 11:10:01;;;;;;;;;;;20.50;33.60;;;;;;5091574;28;20351;-51
2022/01/11 11:12:28;;;;;;;;;;;20.50;33.50;;;;;;5090934;28;21278;-54
2022/01/11 11:14:55;;;;;;;;;;;20.50;33.50;;;;;;5092183;28;20356;-51
2022/01/11 11:17:32;;;;;;;;;;;20.60;33.60;;;;;;5094817;28;19920;-50
2022/01/11 11:20:03;;;;;;;;;;;20.60;33.60;;;;;;5095013;28;19908;-49
2022/01/11 11:22:29;;;;;;;;;;;20.60;33.50;;;;;;5095918;28;19915;-50
2022/01/11 11:24:55;;;;;;;;;;;20.50;33.50;;;;;;5095304;28;20377;-51
2022/01/11 11:27:22;;;;;;;;;;;20.50;33.60;;;;;;5095259;28;19919;-53
2022/01/11 11:29:50;;;;;;;;;;;20.50;33.50;;;;;;5094751;28;20283;-51
2022/01/11 11:32:20;;;;;;;;;;;20.50;33.50;;;;;;5093573;28;19918;-50
2022/01/11 11:34:49;;;;;;;;;;;20.60;33.50;;;;;;5093941;28;19977;-55
2022/01/11 11:37:34;;;;;;;;;;;20.60;33.50;;;;;;5089723;28;19978;-55
2022/01/11 11:40:02;;;;;;;;;;;20.60;33.50;;;;;;5073111;28;19908;-55
2022/01/11 11:42:29;;;;;;;;;;;20.60;33.40;;;;;;5093113;28;19923;-54
2022/01/11 11:44:56;;;;;;;;;;;20.60;33.40;;;;;;5093733;28;19915;-50
2022/01/11 11:47:32;;;;;;;;;;;20.60;33.40;;;;;;5088929;28;20383;-52
2022/01/11 11:50:03;;;;;;;;;;;20.60;33.40;;;;;;5073587;28;19935;-50
2022/01/11 11:52:34;;;;;;;;;;;20.60;33.40;;;;;;5073863;28;19909;-55
2022/01/11 11:55:02;;;;;;;;;;;20.60;33.40;;;;;;5075576;28;19934;-55
2022/01/11 11:57:31;;;;;;;;;;;20.60;33.30;;;;;;5075926;28;19958;-53
2022/01/11 12:00:07;;;;;;;;;;;20.70;33.40;;;;;;5075712;28;19955;-49
2022/01/11 12:02:32;;;;;;;;;;;20.70;33.40;;;;;;5087419;28;19917;-53
2022/01/11 12:04:58;;;;;;;;;;;20.70;33.40;;;;;;5075905;28;19909;-55
2022/01/11 12:07:40;;;;;;;;;;;20.70;33.40;;;;;;5075523;28;20348;-51
2022/01/11 12:10:11;;;;;;;;;;;20.70;33.40;;;;;;5074171;28;19983;-53
2022/01/11 12:12:39;;;;;;;;;;;20.70;33.40;;;;;;5075028;28;19946;-51
2022/01/11 12:15:22;;;;;;;;;;;20.70;33.40;;;;;;5075385;28;19908;-52
2022/01/11 12:17:57;;;;;;;;;;;20.70;33.40;;;;;;5075057;28;19916;-54
2022/01/11 12:20:41;;;;;;;;;;;20.70;33.40;;;;;;5075036;28;19992;-54
2022/01/11 12:23:07;;;;;;;;;;;20.70;33.40;;;;;;5075401;28;19916;-51
2022/01/11 12:25:33;;;;;;;;;;;20.80;33.40;;;;;;5075403;28;19938;-52
2022/01/11 12:28:01;;;;;;;;;;;20.80;33.30;;;;;;5074115;28;19908;-52
2022/01/11 12:30:26;;;;;;;;;;;20.70;33.40;;;;;;5075087;28;19908;-48
2022/01/11 12:33:08;;;;;;;;;;;20.80;33.40;;;;;;5075212;28;20314;-50
2022/01/11 12:35:33;;;;;;;;;;;20.80;33.40;;;;;;5075113;28;19912;-55
2022/01/11 12:38:06;;;;;;;;;;;20.80;33.40;;;;;;5078294;28;19920;-49
2022/01/11 12:40:36;;;;;;;;;;;20.80;33.20;;;;;;5075773;28;19912;-50
2022/01/11 12:43:03;;;;;;;;;;;20.80;33.60;;;;;;5074898;28;19915;-51
2022/01/11 12:45:47;;;;;;;;;;;20.80;33.50;;;;;;5074838;28;19908;-55
2022/01/11 12:48:13;;;;;;;;;;;20.80;33.30;;;;;;5074622;28;19999;-54
2022/01/11 12:51:00;;;;;;;;;;;20.80;33.40;;;;;;5074920;28;19962;-54
2022/01/11 12:53:26;;;;;;;;;;;20.90;33.30;;;;;;5075118;28;19944;-51
2022/01/11 12:55:55;;;;;;;;;;;20.90;33.30;;;;;;5076602;28;20049;-49
2022/01/11 12:58:21;;;;;;;;;;;20.80;33.40;;;;;;5094405;28;19928;-51
2022/01/11 13:00:46;;;;;;;;;;;20.70;33.80;;;;;;5095065;28;19912;-51
2022/01/11 13:03:12;;;;;;;;;;;20.70;33.90;;;;;;5094232;28;19908;-49
2022/01/11 13:05:40;;;;;;;;;;;20.70;33.80;;;;;;5092857;28;19908;-49
2022/01/11 13:08:07;;;;;;;;;;;20.70;33.90;;;;;;5093062;28;20361;-50
2022/01/11 13:10:33;;;;;;;;;;;20.70;33.90;;;;;;5092737;28;19989;-51
2022/01/11 13:13:16;;;;;;;;;;;20.70;33.90;;;;;;5092551;28;19909;-49
2022/01/11 13:15:44;;;;;;;;;;;20.80;33.70;;;;;;5092383;28;19912;-54
2022/01/11 13:18:11;;;;;;;;;;;20.80;33.80;;;;;;5092926;28;19959;-54
2022/01/11 13:20:37;;;;;;;;;;;20.80;33.80;;;;;;5094349;28;19923;-54
2022/01/11 13:23:21;;;;;;;;;;;20.80;33.80;;;;;;5094446;28;19912;-52
2022/01/11 13:25:51;;;;;;;;;;;20.80;34.10;;;;;;5092589;28;19912;-53
2022/01/11 13:28:21;;;;;;;;;;;20.80;33.90;;;;;;5093776;28;20102;-51
2022/01/11 13:30:49;;;;;;;;;;;20.80;33.90;;;;;;5081683;28;20432;-50
2022/01/11 13:33:29;;;;;;;;;;;20.80;34.00;;;;;;5089884;28;19952;-55
2022/01/11 13:35:55;;;;;;;;;;;20.80;34.00;;;;;;5093089;28;20660;-52
2022/01/11 13:38:21;;;;;;;;;;;20.80;34.00;;;;;;5091703;28;20391;-51
2022/01/11 13:40:46;;;;;;;;;;;20.80;34.10;;;;;;5092432;28;19912;-54
2022/01/11 13:43:13;;;;;;;;;;;20.80;34.00;;;;;;5078976;28;20003;-50
2022/01/11 13:45:44;;;;;;;;;;;20.80;34.10;;;;;;5072940;28;19916;-51
2022/01/11 13:48:22;;;;;;;;;;;20.80;34.10;;;;;;5088767;28;19916;-53
2022/01/11 13:50:52;;;;;;;;;;;20.80;34.10;;;;;;5092753;28;20378;-54
2022/01/11 13:53:21;;;;;;;;;;;20.90;34.10;;;;;;5092876;28;19912;-55
2022/01/11 13:55:48;;;;;;;;;;;21.00;34.10;;;;;;5084003;28;19909;-52
2022/01/11 13:58:17;;;;;;;;;;;20.90;34.10;;;;;;5072251;28;19916;-50
2022/01/11 14:00:43;;;;;;;;;;;20.90;34.10;;;;;;5073057;28;19960;-51
2022/01/11 14:03:15;;;;;;;;;;;20.90;34.10;;;;;;5073152;28;19950;-52
2022/01/11 14:05:41;;;;;;;;;;;20.90;34.10;;;;;;5072359;28;20299;-50
2022/01/11 14:08:09;;;;;;;;;;;20.90;34.10;;;;;;5073467;28;20429;-50
2022/01/11 14:10:37;;;;;;;;;;;20.90;34.10;;;;;;5073401;28;19908;-55
2022/01/11 14:13:06;;;;;;;;;;;20.90;34.10;;;;;;5073382;28;19909;-52
2022/01/11 14:15:32;;;;;;;;;;;20.80;34.10;;;;;;5073715;28;20015;-51
2022/01/11 14:17:58;;;;;;;;;;;20.80;34.10;;;;;;5071658;28;20531;-50